Latest Weather Observations for Ulladulla

IDN60801

Issued at 12:32 pm EDT Friday 9 December 2016 (issued every 30 minutes, with the page automatically refreshed every 10 minutes)

About weather observations | Map of weather stations | Latest weather observations for NSW | Other Formats
Station Details ID: 069138 Name: ULLADULLA AWS Lat: -35.36 Lon: 150.48 Height: 35.7 m
Data from the previous 72 hours. | See also: Recent months at Ulladulla
Date/Time
EDT
Temp
°C
App
Temp
°C
Dew
Point
°C
Rel
Hum
%
Delta-T
°C
Wind Press
QNH
hPa
Press
MSL
hPa
Rain since
9am
mm
Dir  Spd
km/h
Gust
km/h
Spd
kts
Gust
kts
09/12:30pm 20.8 18.0 10.0 50 5.8 S 15 22 8 12 1009.4 1009.3 0.0
09/12:00pm 20.1 16.1 10.5 54 5.2 S 22 32 12 17 1009.4 1009.3 0.0
09/11:30am 19.4 14.5 10.1 55 5.0 S 26 33 14 18 1009.2 1009.1 0.0
09/11:00am 18.9 14.2 9.4 54 5.0 S 24 35 13 19 1008.9 1008.8 0.0
09/10:30am 17.7 12.3 9.6 59 4.3 S 28 39 15 21 1008.7 1008.6 0.0
09/10:00am 18.8 14.2 11.1 61 4.2 S 26 35 14 19 1008.2 1008.1 0.0
09/09:30am 19.2 15.7 11.0 59 4.5 S 20 26 11 14 1008.0 1007.9 0.0
09/09:00am 18.9 15.3 10.5 58 4.5 S 20 24 11 13 1007.7 1007.6 0.0
09/08:30am 18.9 15.3 9.7 55 4.9 SSW 19 28 10 15 1007.4 1007.3 0.0
09/08:00am 17.8 14.3 7.2 50 5.3 W 15 30 8 16 1006.4 1006.3 0.0
09/07:30am 19.1 15.3 7.5 47 5.9 WNW 17 28 9 15 1005.7 1005.6 0.0
09/07:00am 18.2 14.3 7.3 49 5.5 WNW 17 35 9 19 1005.2 1005.1 0.0
09/06:30am 17.6 14.6 7.6 52 5.1 WNW 13 24 7 13 1004.9 1004.8 0.0
09/06:00am 17.0 13.2 7.4 53 4.8 WNW 17 30 9 16 1004.2 1004.1 0.0
09/05:30am 16.8 13.4 7.7 55 4.6 WNW 15 24 8 13 1003.8 1003.7 0.0
09/05:00am 17.1 12.8 8.0 55 4.6 WNW 20 35 11 19 1003.1 1003.0 0.0
09/04:30am 17.3 12.8 8.4 56 4.6 WNW 22 37 12 20 1002.5 1002.4 0.0
09/04:00am 17.1 14.0 8.8 58 4.3 WNW 15 26 8 14 1002.6 1002.5 0.0
09/03:30am 17.4 14.2 8.5 56 4.6 WNW 15 32 8 17 1002.4 1002.3 0.0
09/03:00am 17.5 13.9 6.7 49 5.4 WNW 15 28 8 15 1002.1 1002.0 0.0
09/02:30am 17.5 14.7 7.0 50 5.2 NW 11 19 6 10 1002.0 1001.9 0.0
09/02:00am 18.3 15.0 6.5 46 5.9 WSW 13 22 7 12 1001.7 1001.6 0.0
09/01:30am 18.7 16.0 7.2 47 5.8 WSW 11 28 6 15 1000.8 1000.6 0.0
09/01:00am 19.1 18.0 13.1 68 3.4 SW 11 20 6 11 1000.5 1000.3 0.0
09/12:30am 19.6 19.5 15.0 75 2.7 SW 9 17 5 9 999.9 999.7 0.0
09/12:00am 21.0 18.3 11.6 55 5.3 WNW 17 30 9 16 999.2 999.0 0.0
 
Date/Time
EDT
Temp
°C
App
Temp
°C
Dew
Point
°C
Rel
Hum
%
Delta-T
°C
Wind Press
QNH
hPa
Press
MSL
hPa
Rain since
9am
mm
Dir  Spd
km/h
Gust
km/h
Spd
kts
Gust
kts
08/11:30pm 22.4 20.0 12.6 54 5.6 WNW 17 30 9 16 998.5 998.3 0.0
08/11:00pm 23.3 21.3 13.8 55 5.6 WNW 17 30 9 16 998.2 998.0 0.0
08/10:30pm 23.7 23.8 14.4 56 5.5 WNW 7 15 4 8 998.9 998.7 0.0
08/10:00pm 24.4 22.4 13.9 52 6.2 WNW 17 28 9 15 998.5 998.3 0.0
08/09:30pm 25.6 22.9 12.8 45 7.4 WNW 19 39 10 21 998.0 997.8 0.0
08/09:00pm 26.4 23.0 12.5 42 8.1 WNW 22 43 12 23 997.6 997.4 0.0
08/08:30pm 27.1 25.4 12.3 39 8.6 WNW 13 28 7 15 997.2 997.1 0.0
08/08:00pm 27.7 24.3 12.5 39 8.9 WNW 22 43 12 23 996.9 996.8 0.0
08/07:30pm 23.8 25.1 20.1 80 2.4 N 13 26 7 14 996.4 996.3 0.0
08/07:00pm 23.2 24.4 20.0 82 2.1 NNW 13 24 7 13 995.3 995.2 0.0
08/06:30pm 23.1 23.2 19.9 82 2.1 NNW 19 26 10 14 995.4 995.3 0.0
08/06:00pm 22.8 24.4 20.0 84 1.8 NNW 11 20 6 11 995.2 995.1 0.0
08/05:30pm 23.2 25.1 19.8 81 2.2 NNE 9 26 5 14 995.3 995.2 0.0
08/05:00pm 23.6 25.4 19.5 78 2.6 N 9 19 5 10 995.4 995.3 0.0
08/04:30pm 23.4 25.1 20.2 82 2.1 NNE 11 22 6 12 996.1 996.0 0.0
08/04:00pm 22.2 22.3 19.2 83 1.9 NNE 17 28 9 15 996.7 996.6 0.0
08/03:30pm 22.4 23.0 19.4 83 1.9 NNE 15 33 8 18 997.4 997.2 0.0
08/03:00pm 22.7 22.5 19.3 81 2.2 NE 19 32 10 17 998.0 997.8 0.0
08/02:30pm 23.1 23.4 19.5 80 2.3 NE 17 28 9 15 999.0 998.8 0.0
08/02:00pm 23.1 22.7 19.3 79 2.4 NE 20 32 11 17 999.4 999.2 0.0
08/01:30pm 23.4 23.1 19.1 77 2.7 NE 19 33 10 18 1000.2 1000.0 0.0
08/01:00pm 23.1 23.0 18.8 77 2.7 NE 17 28 9 15 1001.0 1000.9 0.0
08/12:30pm 23.1 23.0 18.8 77 2.7 NE 17 28 9 15 1001.6 1001.5 0.0
08/12:00pm 23.2 22.2 18.9 77 2.7 NNE 22 41 12 22 1002.3 1002.2 0.0
08/11:30am 22.2 19.0 18.2 78 2.5 NNE 32 44 17 24 1002.8 1002.7 0.0
08/11:00am 22.0 18.6 18.2 79 2.4 NNE 33 41 18 22 1003.4 1003.3 0.0
08/10:30am 22.1 19.3 18.3 79 2.4 NE 30 39 16 21 1004.2 1004.1 0.0
08/10:00am 21.8 20.4 17.0 74 2.9 NE 20 32 11 17 1004.9 1004.8 0.0
08/09:30am 21.5 19.5 17.5 78 2.5 NE 24 32 13 17 1005.4 1005.3 0.0
08/09:00am 21.5 20.6 16.9 75 2.8 NE 17 28 9 15 1006.3 1006.2 0.0
08/08:30am 21.8 23.2 17.8 78 2.5 N 7 17 4 9 1006.9 1006.8 0.0
08/08:00am 20.6 21.3 17.0 80 2.2 NNW 9 17 5 9 1007.2 1007.1 0.0
08/07:30am 19.8 20.9 17.9 89 1.2 NNW 9 17 5 9 1007.5 1007.4 0.0
08/07:00am 19.1 20.5 17.9 93 0.7 N 7 13 4 7 1008.0 1007.9 0.0
08/06:30am 18.8 18.7 17.8 94 0.6 N 15 22 8 12 1008.0 1007.9 0.0
08/06:00am 18.7 18.2 17.7 94 0.6 N 17 22 9 12 1007.8 1007.7 0.0
08/05:30am 18.4 19.2 18.1 98 0.2 N 11 17 6 9 1008.0 1007.9 0.0
08/05:00am 18.6 20.0 18.6 100 0.0 N 9 15 5 8 1008.5 1008.4 0.0
08/04:30am 18.4 20.2 18.4 100 0.0 N 6 9 3 5 1008.4 1008.3 0.0
08/04:00am 17.9 19.8 17.7 99 0.1 N 4 7 2 4 1009.0 1008.9 0.0
08/03:30am 17.8 19.0 16.0 89 1.1 NNW 4 4 2 2 1009.5 1009.4 0.0
08/03:00am 18.1 19.8 15.2 83 1.7 CALM 0 0 0 0 1009.9 1009.8 0.0
08/02:30am 19.2 20.5 16.2 83 1.8 NNW 4 6 2 3 1010.4 1010.3 0.0
08/02:00am 19.6 21.0 16.4 82 1.9 NNW 4 6 2 3 1011.1 1011.0 0.0
08/01:30am 20.0 21.1 16.6 81 2.1 NNW 6 9 3 5 1011.6 1011.5 0.0
08/01:00am 20.3 20.6 16.9 81 2.1 N 11 17 6 9 1011.8 1011.7 0.0
08/12:30am 20.4 19.5 16.8 80 2.2 N 17 28 9 15 1012.0 1011.9 0.0
08/12:00am 20.4 19.1 17.2 82 2.0 N 20 32 11 17 1012.2 1012.1 0.0
 
Date/Time
EDT
Temp
°C
App
Temp
°C
Dew
Point
°C
Rel
Hum
%
Delta-T
°C
Wind Press
QNH
hPa
Press
MSL
hPa
Rain since
9am
mm
Dir  Spd
km/h
Gust
km/h
Spd
kts
Gust
kts
07/11:30pm 20.4 20.4 17.2 82 2.0 N 13 20 7 11 1012.5 1012.4 0.0
07/11:00pm 20.3 21.4 17.1 82 2.0 N 7 17 4 9 1012.6 1012.5 0.0
07/10:30pm 20.3 20.5 16.7 80 2.2 NNE 11 20 6 11 1013.1 1013.0 0.0
07/10:00pm 20.2 19.1 16.4 79 2.3 NE 17 24 9 13 1013.4 1013.3 0.0
07/09:30pm 20.2 18.1 16.2 78 2.4 NE 22 32 12 17 1013.3 1013.2 0.0
07/09:00pm 20.2 18.1 16.2 78 2.4 NE 22 32 12 17 1013.7 1013.6 0.0
07/08:30pm 20.1 18.5 16.1 78 2.4 NNE 19 26 10 14 1013.8 1013.7 0.0
07/08:00pm 19.9 19.1 16.0 78 2.3 NE 15 24 8 13 1014.0 1013.9 0.0
07/07:30pm 19.9 18.9 15.7 77 2.5 NE 15 24 8 13 1014.0 1013.9 0.0
07/07:00pm 19.8 18.7 15.4 76 2.6 NE 15 24 8 13 1013.7 1013.6 0.0
07/06:30pm 19.9 18.9 15.5 76 2.6 NE 15 26 8 14 1013.6 1013.5 0.0
07/06:00pm 19.8 19.4 15.2 75 2.7 NE 11 20 6 11 1013.6 1013.5 0.0
07/05:30pm 19.9 19.1 15.1 74 2.8 NE 13 19 7 10 1013.4 1013.3 0.0
07/05:00pm 20.0 19.5 15.0 73 2.9 NE 11 20 6 11 1013.7 1013.6 0.0
07/04:30pm 20.3 19.9 15.3 73 3.0 NE 11 17 6 9 1013.8 1013.7 0.0
07/04:00pm 20.3 19.4 14.9 71 3.2 NE 13 20 7 11 1014.0 1013.9 0.0
07/03:30pm 20.4 19.6 15.2 72 3.1 NE 13 19 7 10 1014.2 1014.1 0.0
07/03:00pm 20.8 20.3 15.8 73 3.0 ENE 13 19 7 10 1014.4 1014.3 0.0
07/02:30pm 21.1 20.5 14.7 67 3.8 ENE 11 17 6 9 1014.5 1014.4 0.0
07/02:00pm 20.9 20.2 14.3 66 3.8 ENE 11 15 6 8 1014.7 1014.6 0.0
07/01:30pm 21.0 21.0 15.1 69 3.5 E 9 15 5 8 1015.2 1015.1 0.0
07/01:00pm 21.2 21.4 14.8 67 3.8 ESE 7 15 4 8 1015.6 1015.5 0.0
07/12:30pm 20.6 20.6 15.2 71 3.2 SSE 9 15 5 8 1016.0 1015.9 0.0
07/12:00pm 20.6 20.2 15.2 71 3.2 S 11 17 6 9 1016.4 1016.3 0.0
07/11:30am 20.0 19.5 15.0 73 2.9 S 11 17 6 9 1016.4 1016.3 0.0
07/11:00am 19.6 18.5 14.4 72 3.0 S 13 17 7 9 1016.4 1016.3 0.0
07/10:30am 19.5 18.9 14.7 74 2.8 S 11 15 6 8 1016.3 1016.2 0.0
07/10:00am 19.5 18.1 15.6 78 2.3 S 17 22 9 12 1016.2 1016.1 0.0
07/09:30am 18.5 17.4 14.4 77 2.4 SSW 13 20 7 11 1016.3 1016.2 0.0
07/09:00am 18.3 18.2 15.0 81 1.9 SSW 9 13 5 7 1016.4 1016.3 2.2
07/08:30am 17.7 18.0 15.0 84 1.6 SW 7 13 4 7 1016.2 1016.1 2.2
07/08:00am 17.7 17.6 15.0 84 1.6 SSW 9 15 5 8 1016.0 1015.9 2.2
07/07:30am 18.3 17.5 15.0 81 1.9 S 13 20 7 11 1015.8 1015.7 2.2
07/07:00am 17.6 16.4 14.1 80 2.0 S 13 19 7 10 1015.3 1015.2 2.2
07/06:30am 17.5 16.0 14.2 81 1.9 S 15 20 8 11 1015.1 1015.0 2.2
07/06:00am 17.5 15.2 14.6 83 1.7 S 20 26 11 14 1015.2 1015.1 2.2
07/05:30am 17.5 16.2 14.8 84 1.6 SSW 15 24 8 13 1014.6 1014.5 2.2
07/05:00am 17.7 17.3 15.1 85 1.5 S 11 17 6 9 1014.1 1014.0 2.2
07/04:30am 17.3 16.8 14.8 85 1.4 S 11 17 6 9 1013.7 1013.6 2.2
07/04:00am 17.7 16.5 15.0 84 1.6 S 15 22 8 12 1013.5 1013.4 2.2
07/03:30am 17.8 17.0 15.1 84 1.6 S 13 20 7 11 1013.5 1013.4 2.2
07/03:00am 17.9 17.3 15.7 87 1.3 SSE 13 20 7 11 1013.5 1013.4 2.2
07/02:30am 17.9 16.9 15.5 86 1.4 S 15 20 8 11 1013.6 1013.5 2.2
07/02:00am 17.8 16.4 15.6 87 1.3 S 17 24 9 13 1014.0 1013.9 2.2
07/01:30am 17.9 16.7 16.2 90 1.0 S 17 24 9 13 1014.3 1014.2 2.2
07/01:00am 17.7 15.5 16.0 90 1.0 S 22 28 12 15 1013.9 1013.8 2.2
07/12:30am 17.7 15.8 16.7 94 0.6 S 22 30 12 16 1014.1 1014.0 2.2
07/12:00am 17.6 16.4 17.6 100 0.0 S 20 28 11 15 1013.9 1013.8 2.2
 
Date/Time
EDT
Temp
°C
App
Temp
°C
Dew
Point
°C
Rel
Hum
%
Delta-T
°C
Wind Press
QNH
hPa
Press
MSL
hPa
Rain since
9am
mm
Dir  Spd
km/h
Gust
km/h
Spd
kts
Gust
kts
06/11:30pm 17.7 16.6 17.7 100 0.0 S 20 28 11 15 1013.8 1013.7 2.0
06/11:00pm 17.8 16.0 17.8 100 0.0 S 24 32 13 17 1014.0 1013.9 1.6
06/10:30pm 17.7 15.4 17.7 100 0.0 S 26 33 14 18 1013.9 1013.8 1.4
06/10:00pm 18.0 16.6 18.0 100 0.0 S 22 32 12 17 1013.8 1013.7 1.4
06/09:30pm 18.3 18.4 18.3 100 0.0 SSW 15 22 8 12 1013.5 1013.4 1.0
06/09:00pm 18.3 17.6 18.3 100 0.0 SSW 19 28 10 15 1013.0 1012.9 0.6
06/08:30pm 18.4 16.8 18.4 100 0.0 SSW 24 33 13 18 1012.4 1012.3 0.4
06/08:00pm 18.9 17.5 18.9 100 0.0 SSW 24 37 13 20 1012.0 1011.9 0.2
06/07:30pm 19.0 17.3 19.0 100 0.0 SSW 26 39 14 21 1011.2 1011.1 0.2
06/07:00pm 19.1 17.1 19.1 100 0.0 SSW 28 39 15 21 1010.8 1010.7 0.2
06/06:30pm 19.4 17.1 19.4 100 0.0 SSW 30 44 16 24 1010.0 1009.9 0.2
06/06:00pm 20.2 19.8 20.2 100 0.0 S 22 33 12 18 1008.8 1008.7 0.2
06/05:30pm 20.7 20.0 20.2 97 0.3 S 24 33 13 18 1008.5 1008.4 0.2
06/05:00pm 21.3 20.2 19.4 89 1.2 SSW 24 39 13 21 1008.4 1008.3 0.2
06/04:56pm 21.6 21.1 19.0 85 1.6 SSW 20 39 11 21 1008.4 1008.3 0.2
06/04:30pm 23.1 26.7 22.1 94 0.7 N 6 11 3 6 1007.9 1007.8 0.2
06/04:00pm 22.1 25.2 22.1 100 0.0 N 9 13 5 7 1007.7 1007.6 0.2
06/03:30pm 21.1 23.3 21.1 100 0.0 N 11 17 6 9 1009.1 1009.0 0.2
06/03:00pm 20.6 22.0 20.4 99 0.1 N 13 19 7 10 1009.3 1009.2 0.2
06/02:30pm 20.8 23.7 20.6 99 0.1 N 6 11 3 6 1009.8 1009.7 0.2
06/02:00pm 20.5 23.2 20.3 99 0.1 NNW 6 11 3 6 1010.0 1009.9 0.2
06/01:30pm 20.3 22.7 20.0 98 0.2 N 7 17 4 9 1010.0 1009.9 0.2
06/01:00pm 19.8 20.4 19.5 98 0.2 NNE 15 19 8 10 1010.1 1010.0 0.2

Other Formats:

Comma delimited format used in spreadsheet applications
http://www.bom.gov.au/fwo/IDN60801/IDN60801.94938.axf

JavaScript Object Notation format (JSON) in row-major order
http://www.bom.gov.au/fwo/IDN60801/IDN60801.94938.json